Time;durP1;ratioP1;P1;durP2;ratioP2;P2;SDS_P1;SDS_P2;PMS_P1;PMS_P2;Temp;Humidity;BMP_temperature;BMP_pressure;BME280_temperature;BME280_humidity;BME280_pressure;Samples;Min_cycle;Max_cycle;Signal;HPM_P1;HPM_P2
2022/06/27 00:00:02;;;;;;;2.45;2.30;;;;;;;;;;5010896;28;20219;-77
2022/06/27 00:02:40;;;;;;;2.80;2.50;;;;;;;;;;5020056;28;20800;-77
2022/06/27 00:05:08;;;;;;;3.15;2.50;;;;;;;;;;5011626;28;20277;-75
2022/06/27 00:07:36;;;;;;;2.70;2.40;;;;;;;;;;5021196;28;20215;-76
2022/06/27 00:10:05;;;;;;;3.13;2.83;;;;;;;;;;5012307;28;20227;-73
2022/06/27 00:12:31;;;;;;;2.65;2.45;;;;;;;;;;5009625;28;20215;-73
2022/06/27 00:14:57;;;;;;;3.50;2.47;;;;;;;;;;5027842;28;20212;-74
2022/06/27 00:17:22;;;;;;;2.88;2.42;;;;;;;;;;4990033;28;20221;-73
2022/06/27 00:19:48;;;;;;;3.13;2.70;;;;;;;;;;5019935;28;20232;-74
2022/06/27 00:22:15;;;;;;;3.28;2.75;;;;;;;;;;5011054;28;20578;-74
2022/06/27 00:24:43;;;;;;;2.42;2.25;;;;;;;;;;5012327;28;20224;-73
2022/06/27 00:27:11;;;;;;;2.92;2.67;;;;;;;;;;5010936;28;20244;-74
2022/06/27 00:29:37;;;;;;;3.00;2.65;;;;;;;;;;5020282;28;20229;-72
2022/06/27 00:32:03;;;;;;;3.60;2.78;;;;;;;;;;5003449;28;20232;-73
2022/06/27 00:34:31;;;;;;;3.22;2.92;;;;;;;;;;5007479;28;20257;-74
2022/06/27 00:36:56;;;;;;;3.75;2.70;;;;;;;;;;4988083;28;20282;-75
2022/06/27 00:39:22;;;;;;;2.42;2.33;;;;;;;;;;5034809;28;20236;-73
2022/06/27 00:41:50;;;;;;;3.05;2.55;;;;;;;;;;5010308;28;20228;-76
2022/06/27 00:44:36;;;;;;;2.85;2.65;;;;;;;;;;5012414;28;20231;-76
2022/06/27 00:47:06;;;;;;;2.70;2.50;;;;;;;;;;5020240;28;20781;-73
2022/06/27 00:49:37;;;;;;;3.22;2.60;;;;;;;;;;5015680;28;20228;-73
2022/06/27 00:52:06;;;;;;;3.85;2.70;;;;;;;;;;5017322;28;20737;-73
2022/06/27 00:54:32;;;;;;;3.00;2.70;;;;;;;;;;5010036;28;20234;-73
2022/06/27 00:57:00;;;;;;;2.60;2.40;;;;;;;;;;5023081;28;20217;-77
2022/06/27 00:59:28;;;;;;;2.97;2.65;;;;;;;;;;5020567;28;20799;-75
2022/06/27 01:01:56;;;;;;;2.67;2.15;;;;;;;;;;5004621;28;20233;-74
2022/06/27 01:04:22;;;;;;;2.70;2.38;;;;;;;;;;5009136;28;21058;-74
2022/06/27 01:06:54;;;;;;;2.88;2.67;;;;;;;;;;5019636;28;20720;-74
2022/06/27 01:09:20;;;;;;;2.83;2.25;;;;;;;;;;5018399;28;20334;-74
2022/06/27 01:11:45;;;;;;;2.65;2.35;;;;;;;;;;5005425;28;20204;-75
2022/06/27 01:14:15;;;;;;;2.55;2.38;;;;;;;;;;5009583;28;20212;-78
2022/06/27 01:16:41;;;;;;;2.53;2.33;;;;;;;;;;5035520;28;20220;-74
2022/06/27 01:19:09;;;;;;;2.60;2.40;;;;;;;;;;5008164;28;20267;-74
2022/06/27 01:21:34;;;;;;;2.80;2.53;;;;;;;;;;5008162;28;20221;-76
2022/06/27 01:24:00;;;;;;;2.95;2.55;;;;;;;;;;5010223;28;20239;-74
2022/06/27 01:26:26;;;;;;;2.92;2.72;;;;;;;;;;5009380;28;20220;-75
2022/06/27 01:28:53;;;;;;;2.90;2.70;;;;;;;;;;5017911;28;20208;-74
2022/06/27 01:31:21;;;;;;;2.88;2.67;;;;;;;;;;5007327;28;20729;-74
2022/06/27 01:33:46;;;;;;;3.20;2.90;;;;;;;;;;5010099;28;20224;-73
2022/06/27 01:38:58;;;;;;;3.08;2.88;;;;;;;;;;5031316;28;20322;-73
2022/06/27 01:41:24;;;;;;;3.45;3.25;;;;;;;;;;5006507;28;20244;-74
2022/06/27 01:43:50;;;;;;;3.60;3.30;;;;;;;;;;4985433;28;20227;-75
2022/06/27 01:46:16;;;;;;;4.15;3.20;;;;;;;;;;5008512;28;20286;-74
2022/06/27 01:48:41;;;;;;;3.95;3.42;;;;;;;;;;5009288;28;20217;-75
2022/06/27 01:51:09;;;;;;;3.38;3.17;;;;;;;;;;5009770;28;20270;-73
2022/06/27 01:53:37;;;;;;;5.30;3.55;;;;;;;;;;4992423;28;20714;-74
2022/06/27 01:56:06;;;;;;;6.15;3.53;;;;;;;;;;5004765;28;20224;-74
2022/06/27 01:58:43;;;;;;;4.75;3.53;;;;;;;;;;5022050;28;20231;-75
2022/06/27 02:01:09;;;;;;;3.78;3.42;;;;;;;;;;5007191;28;20236;-76
2022/06/27 02:03:36;;;;;;;3.83;3.45;;;;;;;;;;4999804;28;20243;-75
2022/06/27 02:06:03;;;;;;;3.55;3.25;;;;;;;;;;4989218;28;20225;-75
2022/06/27 02:08:28;;;;;;;3.80;3.35;;;;;;;;;;5007967;28;20221;-75
2022/06/27 02:10:57;;;;;;;3.60;3.30;;;;;;;;;;5010050;28;20285;-74
2022/06/27 02:13:24;;;;;;;4.40;3.30;;;;;;;;;;5009903;28;20220;-75
2022/06/27 02:16:06;;;;;;;3.50;3.20;;;;;;;;;;5009530;28;20258;-75
2022/06/27 02:18:34;;;;;;;3.35;3.05;;;;;;;;;;5033184;28;20279;-75
2022/06/27 02:21:02;;;;;;;3.25;3.03;;;;;;;;;;5008077;28;20228;-77
2022/06/27 02:23:29;;;;;;;3.28;2.83;;;;;;;;;;5022336;28;20222;-75
2022/06/27 02:25:58;;;;;;;2.80;2.50;;;;;;;;;;5018134;28;20303;-73
2022/06/27 02:28:26;;;;;;;3.38;2.70;;;;;;;;;;5015461;28;20226;-72
2022/06/27 02:30:52;;;;;;;3.45;3.15;;;;;;;;;;5007697;28;20307;-73
2022/06/27 02:33:18;;;;;;;4.25;3.55;;;;;;;;;;5007415;28;20308;-74
2022/06/27 02:35:44;;;;;;;3.30;3.10;;;;;;;;;;5013852;28;20224;-72
2022/06/27 02:38:14;;;;;;;3.95;3.55;;;;;;;;;;5014639;28;20729;-73
2022/06/27 02:40:43;;;;;;;4.35;3.97;;;;;;;;;;5004249;28;20259;-72
2022/06/27 02:43:15;;;;;;;4.13;3.83;;;;;;;;;;5019511;28;20227;-72
2022/06/27 02:45:44;;;;;;;4.43;3.92;;;;;;;;;;5008678;28;20699;-73
2022/06/27 02:48:10;;;;;;;4.55;4.15;;;;;;;;;;5007180;28;20223;-73
2022/06/27 02:50:37;;;;;;;4.97;4.47;;;;;;;;;;5009658;28;20286;-72
2022/06/27 02:53:09;;;;;;;4.80;4.30;;;;;;;;;;5005539;28;20227;-75
2022/06/27 02:55:38;;;;;;;5.20;4.53;;;;;;;;;;5007484;28;20254;-75
2022/06/27 02:58:16;;;;;;;6.40;4.97;;;;;;;;;;5008669;28;20235;-74
2022/06/27 03:00:48;;;;;;;5.57;5.07;;;;;;;;;;4994768;28;20224;-75
2022/06/27 03:03:15;;;;;;;5.43;4.90;;;;;;;;;;4989755;28;20228;-75
2022/06/27 03:06:05;;;;;;;5.40;4.93;;;;;;;;;;5007657;28;20228;-74
2022/06/27 03:08:36;;;;;;;5.93;5.20;;;;;;;;;;5032234;28;20225;-73
2022/06/27 03:11:02;;;;;;;9.25;5.32;;;;;;;;;;5008876;28;20230;-75
2022/06/27 03:13:33;;;;;;;6.60;5.13;;;;;;;;;;5020970;28;20584;-75
2022/06/27 03:16:03;;;;;;;6.95;5.15;;;;;;;;;;5019615;28;20220;-75
2022/06/27 03:18:29;;;;;;;8.10;5.90;;;;;;;;;;5005464;28;20287;-73
2022/06/27 03:21:29;;;;;;;6.22;5.30;;;;;;;;;;5007510;28;20307;-74
2022/06/27 03:23:58;;;;;;;6.43;5.82;;;;;;;;;;5006945;28;20223;-73
2022/06/27 03:26:24;;;;;;;5.85;5.32;;;;;;;;;;5004328;28;20224;-74
2022/06/27 03:28:52;;;;;;;8.63;5.93;;;;;;;;;;5006904;28;20212;-75
2022/06/27 03:31:24;;;;;;;6.72;6.13;;;;;;;;;;5005935;28;20212;-74
2022/06/27 03:33:54;;;;;;;6.80;5.95;;;;;;;;;;5007756;28;20213;-73
2022/06/27 03:36:34;;;;;;;7.70;6.15;;;;;;;;;;5003302;28;20215;-75
2022/06/27 03:39:00;;;;;;;6.72;5.93;;;;;;;;;;5011534;28;20227;-75
2022/06/27 03:41:28;;;;;;;6.78;6.15;;;;;;;;;;5010371;28;20224;-73
2022/06/27 03:43:57;;;;;;;6.75;6.15;;;;;;;;;;5014002;28;20265;-73
2022/06/27 03:46:27;;;;;;;6.95;6.15;;;;;;;;;;5021706;28;20215;-74
2022/06/27 03:51:55;;;;;;;8.50;6.80;;;;;;;;;;5014962;28;20220;-73
2022/06/27 03:54:20;;;;;;;7.85;6.68;;;;;;;;;;5011007;28;20716;-73
2022/06/27 03:56:48;;;;;;;7.15;6.45;;;;;;;;;;5010110;28;20209;-73
2022/06/27 03:59:17;;;;;;;8.32;6.40;;;;;;;;;;5021546;28;20731;-73
2022/06/27 04:01:47;;;;;;;7.25;5.93;;;;;;;;;;5035492;28;20370;-74
2022/06/27 04:04:15;;;;;;;6.93;6.28;;;;;;;;;;5027892;28;20220;-74
2022/06/27 04:06:49;;;;;;;6.97;6.20;;;;;;;;;;5008117;28;20228;-75
2022/06/27 04:09:16;;;;;;;8.07;6.45;;;;;;;;;;5023381;28;20262;-73
2022/06/27 04:11:47;;;;;;;6.90;6.22;;;;;;;;;;5009318;28;20225;-74
2022/06/27 04:14:35;;;;;;;10.10;6.55;;;;;;;;;;5023483;28;20223;-75
2022/06/27 04:17:19;;;;;;;9.95;6.57;;;;;;;;;;5015381;28;20283;-75
2022/06/27 04:20:11;;;;;;;8.15;7.38;;;;;;;;;;5016810;28;20224;-75
2022/06/27 04:22:53;;;;;;;7.25;6.55;;;;;;;;;;5018374;28;20228;-76
2022/06/27 04:25:56;;;;;;;8.20;7.30;;;;;;;;;;5006603;28;20230;-75
2022/06/27 04:28:22;;;;;;;7.95;7.22;;;;;;;;;;5021462;28;20215;-74
2022/06/27 04:30:52;;;;;;;7.93;7.18;;;;;;;;;;5036015;28;20223;-75
2022/06/27 04:33:17;;;;;;;8.10;7.25;;;;;;;;;;5010401;28;20765;-75
2022/06/27 04:35:46;;;;;;;8.27;7.47;;;;;;;;;;5009701;28;20227;-77
2022/06/27 04:38:13;;;;;;;9.07;8.15;;;;;;;;;;5009608;28;20237;-75
2022/06/27 04:40:42;;;;;;;8.20;7.50;;;;;;;;;;5028412;28;20239;-74
2022/06/27 04:43:13;;;;;;;8.38;7.57;;;;;;;;;;5019110;28;20244;-75
2022/06/27 04:45:43;;;;;;;8.73;7.72;;;;;;;;;;4995575;28;20227;-76
2022/06/27 04:48:29;;;;;;;9.30;7.55;;;;;;;;;;5003963;28;20375;-75
2022/06/27 04:50:59;;;;;;;8.82;7.05;;;;;;;;;;5008274;28;20663;-75
2022/06/27 04:53:28;;;;;;;7.93;7.22;;;;;;;;;;5011160;28;20997;-74
2022/06/27 04:55:56;;;;;;;7.65;7.05;;;;;;;;;;5023255;28;20227;-74
2022/06/27 04:58:23;;;;;;;7.70;6.90;;;;;;;;;;5008651;28;20239;-75
2022/06/27 05:00:51;;;;;;;8.18;7.38;;;;;;;;;;5002916;28;20221;-74
2022/06/27 05:03:38;;;;;;;7.82;7.00;;;;;;;;;;4996619;28;20254;-73
2022/06/27 05:06:10;;;;;;;8.55;7.75;;;;;;;;;;5004336;28;20717;-73
2022/06/27 05:08:37;;;;;;;7.43;6.72;;;;;;;;;;5023473;28;20255;-75
2022/06/27 05:11:19;;;;;;;8.48;7.05;;;;;;;;;;5003392;28;20220;-75
2022/06/27 05:13:45;;;;;;;7.30;6.60;;;;;;;;;;5012234;28;20889;-73
2022/06/27 05:16:43;;;;;;;7.63;6.78;;;;;;;;;;5016118;28;20220;-75
2022/06/27 05:19:18;;;;;;;6.97;6.38;;;;;;;;;;5009944;28;20311;-75
2022/06/27 05:21:45;;;;;;;7.15;6.47;;;;;;;;;;5010820;28;21178;-75
2022/06/27 05:24:12;;;;;;;7.28;6.57;;;;;;;;;;5006522;28;20216;-74
2022/06/27 05:26:38;;;;;;;8.32;7.07;;;;;;;;;;5008405;28;20232;-74
2022/06/27 05:29:04;;;;;;;7.18;6.57;;;;;;;;;;5010287;28;20247;-75
2022/06/27 05:31:32;;;;;;;6.78;6.28;;;;;;;;;;5019939;28;20232;-75
2022/06/27 05:33:58;;;;;;;7.10;6.40;;;;;;;;;;5015529;28;20314;-73
2022/06/27 05:36:24;;;;;;;7.72;6.45;;;;;;;;;;5011201;28;20227;-75
2022/06/27 05:38:52;;;;;;;6.78;6.18;;;;;;;;;;4993329;28;20224;-74
2022/06/27 05:41:18;;;;;;;6.18;5.65;;;;;;;;;;5033316;28;20221;-75
2022/06/27 05:43:45;;;;;;;7.22;5.82;;;;;;;;;;5008989;28;20217;-75
2022/06/27 05:46:11;;;;;;;5.72;5.22;;;;;;;;;;5024485;28;20219;-73
2022/06/27 05:48:57;;;;;;;5.40;4.93;;;;;;;;;;5018754;28;20329;-76
2022/06/27 05:51:41;;;;;;;5.75;5.13;;;;;;;;;;5020319;28;20238;-76
2022/06/27 05:54:09;;;;;;;4.70;4.30;;;;;;;;;;5010343;28;20216;-74
2022/06/27 05:56:35;;;;;;;5.22;4.72;;;;;;;;;;5010802;28;20599;-74
2022/06/27 05:59:02;;;;;;;5.00;4.47;;;;;;;;;;5024039;28;20235;-75
2022/06/27 06:01:29;;;;;;;5.03;4.63;;;;;;;;;;5010602;28;20255;-74
2022/06/27 06:04:21;;;;;;;4.55;4.18;;;;;;;;;;5008753;28;20724;-76
2022/06/27 06:06:58;;;;;;;5.18;4.40;;;;;;;;;;5015679;28;20312;-76
2022/06/27 06:09:27;;;;;;;4.50;4.10;;;;;;;;;;5018153;28;20327;-74
2022/06/27 06:11:57;;;;;;;4.55;4.15;;;;;;;;;;5016466;28;20861;-75
2022/06/27 06:14:26;;;;;;;4.43;3.90;;;;;;;;;;5020386;28;20242;-76
2022/06/27 06:16:53;;;;;;;5.10;3.83;;;;;;;;;;5007026;28;20278;-76
2022/06/27 06:19:21;;;;;;;5.57;3.80;;;;;;;;;;5003920;28;20829;-76
2022/06/27 06:21:52;;;;;;;4.10;3.78;;;;;;;;;;5035230;28;20320;-77
2022/06/27 06:24:24;;;;;;;4.15;3.75;;;;;;;;;;5006095;28;20595;-76
2022/06/27 06:26:52;;;;;;;5.88;3.70;;;;;;;;;;5019361;28;20232;-77
2022/06/27 06:29:22;;;;;;;4.40;3.55;;;;;;;;;;4985706;28;20322;-77
2022/06/27 06:31:54;;;;;;;4.82;3.42;;;;;;;;;;5021403;28;20244;-78
2022/06/27 06:34:25;;;;;;;3.97;3.67;;;;;;;;;;5018951;28;21062;-76
2022/06/27 06:36:53;;;;;;;3.60;3.30;;;;;;;;;;5024773;28;20228;-77
2022/06/27 06:39:26;;;;;;;5.72;3.65;;;;;;;;;;5027332;28;20262;-75
2022/06/27 06:41:52;;;;;;;4.13;3.72;;;;;;;;;;5005609;28;20772;-73
2022/06/27 06:44:19;;;;;;;4.30;3.50;;;;;;;;;;5007292;28;20226;-76
2022/06/27 06:46:48;;;;;;;4.88;4.20;;;;;;;;;;5025965;28;20224;-76
2022/06/27 06:49:54;;;;;;;4.90;4.50;;;;;;;;;;5017220;28;20307;-75
2022/06/27 06:52:22;;;;;;;5.90;5.20;;;;;;;;;;5022102;28;20224;-74
2022/06/27 06:54:48;;;;;;;5.90;5.40;;;;;;;;;;5009090;28;20270;-75
2022/06/27 06:57:14;;;;;;;6.75;5.97;;;;;;;;;;5008237;28;20212;-75
2022/06/27 06:59:40;;;;;;;7.20;6.30;;;;;;;;;;5006636;28;20232;-74
2022/06/27 07:02:06;;;;;;;6.45;5.95;;;;;;;;;;5018463;28;20227;-76
2022/06/27 07:04:34;;;;;;;6.93;6.35;;;;;;;;;;5025305;28;20694;-75
2022/06/27 07:07:01;;;;;;;7.07;6.38;;;;;;;;;;5019039;28;20224;-74
2022/06/27 07:09:27;;;;;;;6.97;6.38;;;;;;;;;;5019013;28;20324;-75
2022/06/27 07:11:55;;;;;;;8.18;7.32;;;;;;;;;;5009583;28;20276;-75
2022/06/27 07:14:27;;;;;;;8.68;7.88;;;;;;;;;;5024631;28;20220;-74
2022/06/27 07:16:54;;;;;;;10.88;9.98;;;;;;;;;;5028339;28;20208;-76
2022/06/27 07:19:22;;;;;;;9.13;8.25;;;;;;;;;;5028586;28;20239;-77
2022/06/27 07:21:48;;;;;;;9.60;8.60;;;;;;;;;;5030472;28;20226;-73
2022/06/27 07:24:14;;;;;;;9.35;8.45;;;;;;;;;;5020697;28;20636;-77
2022/06/27 07:26:39;;;;;;;9.90;8.60;;;;;;;;;;5020436;28;20220;-75
2022/06/27 07:29:05;;;;;;;9.25;8.35;;;;;;;;;;5014833;28;20224;-75
2022/06/27 07:31:32;;;;;;;9.00;8.20;;;;;;;;;;5018498;28;20299;-72
2022/06/27 07:33:58;;;;;;;9.10;8.30;;;;;;;;;;4985351;28;20228;-77
2022/06/27 07:36:28;;;;;;;9.45;8.48;;;;;;;;;;5016681;28;20216;-77
2022/06/27 07:38:54;;;;;;;11.20;9.88;;;;;;;;;;5004967;28;20252;-76
2022/06/27 07:41:21;;;;;;;10.70;9.70;;;;;;;;;;5012698;28;20220;-78
2022/06/27 07:43:50;;;;;;;11.65;10.55;;;;;;;;;;5040462;28;20225;-75
2022/06/27 07:46:17;;;;;;;10.23;9.43;;;;;;;;;;5011530;28;20223;-74
2022/06/27 07:48:44;;;;;;;11.32;10.32;;;;;;;;;;5013416;28;20223;-77
2022/06/27 07:51:10;;;;;;;11.18;10.18;;;;;;;;;;5010753;28;20220;-76
2022/06/27 07:53:36;;;;;;;12.15;11.00;;;;;;;;;;5023345;28;20277;-76
2022/06/27 07:56:06;;;;;;;13.70;12.40;;;;;;;;;;5027891;28;20243;-75
2022/06/27 07:58:38;;;;;;;13.13;11.93;;;;;;;;;;5012344;28;20228;-75
2022/06/27 08:01:16;;;;;;;13.02;12.02;;;;;;;;;;5012734;28;20235;-74
2022/06/27 08:03:43;;;;;;;14.82;13.63;;;;;;;;;;5034408;28;20260;-75
2022/06/27 08:06:19;;;;;;;14.93;13.63;;;;;;;;;;5011573;28;20224;-76
2022/06/27 08:08:47;;;;;;;15.73;14.32;;;;;;;;;;5019056;28;20277;-76
2022/06/27 08:11:15;;;;;;;17.27;15.70;;;;;;;;;;5019070;28;20772;-76
2022/06/27 08:13:41;;;;;;;19.42;17.55;;;;;;;;;;5011199;28;20227;-76
2022/06/27 08:16:08;;;;;;;16.70;15.23;;;;;;;;;;5011123;28;20220;-76
2022/06/27 08:18:38;;;;;;;18.23;16.58;;;;;;;;;;5011839;28;20224;-73
2022/06/27 08:21:11;;;;;;;18.65;16.75;;;;;;;;;;4990239;28;20309;-74
2022/06/27 08:23:38;;;;;;;18.25;16.55;;;;;;;;;;4983579;28;20232;-76
2022/06/27 08:26:10;;;;;;;18.05;16.45;;;;;;;;;;5009744;28;20224;-75
2022/06/27 08:28:38;;;;;;;16.75;15.15;;;;;;;;;;5009493;28;20225;-74
2022/06/27 08:31:08;;;;;;;16.50;15.07;;;;;;;;;;5035069;28;20252;-77
2022/06/27 08:33:36;;;;;;;18.08;16.40;;;;;;;;;;5006623;28;20220;-75
2022/06/27 08:36:02;;;;;;;17.45;16.02;;;;;;;;;;4978836;28;20237;-77
2022/06/27 08:38:28;;;;;;;18.67;16.77;;;;;;;;;;5009655;28;20243;-76
2022/06/27 08:40:56;;;;;;;17.17;15.60;;;;;;;;;;5023453;28;20702;-76
2022/06/27 08:43:23;;;;;;;17.60;15.93;;;;;;;;;;5023628;28;20277;-77
2022/06/27 08:45:51;;;;;;;15.93;14.55;;;;;;;;;;5041995;28;20255;-73
2022/06/27 08:48:17;;;;;;;16.67;15.27;;;;;;;;;;5011290;28;20588;-76
2022/06/27 08:50:48;;;;;;;18.25;16.60;;;;;;;;;;5021414;28;20220;-76
2022/06/27 08:53:14;;;;;;;17.40;15.88;;;;;;;;;;5011125;28;20732;-75
2022/06/27 08:55:45;;;;;;;15.40;14.10;;;;;;;;;;5023377;28;20290;-74
2022/06/27 08:58:12;;;;;;;15.15;13.65;;;;;;;;;;5012459;28;20248;-75
2022/06/27 09:00:40;;;;;;;16.88;15.30;;;;;;;;;;5022523;28;20220;-75
2022/06/27 09:03:13;;;;;;;16.20;14.70;;;;;;;;;;5018571;28;20237;-74
2022/06/27 09:05:39;;;;;;;17.25;15.55;;;;;;;;;;5021343;28;20227;-74
2022/06/27 09:08:06;;;;;;;18.98;17.13;;;;;;;;;;4997729;28;20221;-76
2022/06/27 09:10:39;;;;;;;18.60;17.00;;;;;;;;;;5009596;28;20311;-75
2022/06/27 09:13:12;;;;;;;17.88;16.23;;;;;;;;;;5001001;28;20733;-73
2022/06/27 09:15:54;;;;;;;19.92;17.83;;;;;;;;;;5008815;28;20229;-75
2022/06/27 09:18:35;;;;;;;19.90;18.08;;;;;;;;;;5018928;28;20228;-74
2022/06/27 09:21:05;;;;;;;18.90;17.15;;;;;;;;;;5021544;28;20682;-75
2022/06/27 09:23:53;;;;;;;18.63;16.92;;;;;;;;;;4995721;28;20243;-74
2022/06/27 09:26:26;;;;;;;17.75;16.10;;;;;;;;;;5010056;28;20236;-77
2022/06/27 09:29:14;;;;;;;18.33;16.75;;;;;;;;;;5010032;28;20247;-74
2022/06/27 09:31:46;;;;;;;16.50;14.90;;;;;;;;;;5006432;28;20215;-73
2022/06/27 09:34:14;;;;;;;17.73;16.23;;;;;;;;;;5036759;28;20212;-73
2022/06/27 09:36:56;;;;;;;17.15;15.65;;;;;;;;;;5023467;28;20576;-74
2022/06/27 09:39:24;;;;;;;17.58;16.05;;;;;;;;;;5017620;28;20379;-73
2022/06/27 09:41:58;;;;;;;17.52;16.02;;;;;;;;;;5019392;28;20231;-75
2022/06/27 09:44:31;;;;;;;17.50;15.90;;;;;;;;;;5025217;28;20307;-76
2022/06/27 09:47:20;;;;;;;18.67;16.88;;;;;;;;;;5025880;28;20232;-75
2022/06/27 09:49:51;;;;;;;17.85;16.05;;;;;;;;;;5027678;28;20237;-73
2022/06/27 09:52:18;;;;;;;17.33;15.82;;;;;;;;;;5003075;28;20220;-75
2022/06/27 09:54:45;;;;;;;17.45;15.95;;;;;;;;;;5010843;28;20714;-75
2022/06/27 09:57:12;;;;;;;18.63;17.02;;;;;;;;;;5007448;28;20247;-76
2022/06/27 09:59:40;;;;;;;18.85;16.95;;;;;;;;;;5018883;28;20263;-74
2022/06/27 10:02:08;;;;;;;18.88;17.27;;;;;;;;;;5000287;28;20231;-72
2022/06/27 10:04:37;;;;;;;18.73;16.95;;;;;;;;;;5020151;28;20231;-74
2022/06/27 10:07:08;;;;;;;18.00;16.30;;;;;;;;;;5019902;28;20216;-72
2022/06/27 10:09:37;;;;;;;17.80;15.95;;;;;;;;;;5017214;28;20801;-74
2022/06/27 10:12:27;;;;;;;17.25;15.65;;;;;;;;;;5007548;28;20224;-75
2022/06/27 10:15:19;;;;;;;16.67;15.10;;;;;;;;;;5009821;28;20289;-75
2022/06/27 10:17:45;;;;;;;17.98;16.27;;;;;;;;;;5033083;28;20630;-73
2022/06/27 10:20:33;;;;;;;15.80;14.40;;;;;;;;;;5020138;28;20224;-73
2022/06/27 10:23:13;;;;;;;15.02;13.68;;;;;;;;;;5019293;28;20224;-74
2022/06/27 10:25:44;;;;;;;15.93;14.40;;;;;;;;;;5039624;28;20231;-74
2022/06/27 10:28:13;;;;;;;14.10;12.77;;;;;;;;;;5016786;28;20208;-73
2022/06/27 10:30:47;;;;;;;13.68;12.40;;;;;;;;;;5031748;28;20230;-75
2022/06/27 10:33:22;;;;;;;14.32;12.95;;;;;;;;;;5016925;28;20275;-75
2022/06/27 10:35:57;;;;;;;13.88;12.57;;;;;;;;;;5045371;28;20743;-73
2022/06/27 10:38:31;;;;;;;13.73;12.43;;;;;;;;;;5025420;28;20301;-73
2022/06/27 10:41:00;;;;;;;13.85;12.55;;;;;;;;;;5041528;28;20222;-75
2022/06/27 10:43:45;;;;;;;13.80;12.48;;;;;;;;;;4990357;28;20228;-74
2022/06/27 10:46:10;;;;;;;12.27;11.02;;;;;;;;;;5028069;28;20216;-73
2022/06/27 10:48:46;;;;;;;13.43;12.32;;;;;;;;;;5022622;28;20227;-73
2022/06/27 10:51:21;;;;;;;13.15;11.95;;;;;;;;;;4995759;28;20227;-73
2022/06/27 10:53:47;;;;;;;12.60;11.48;;;;;;;;;;5045882;28;20228;-71
2022/06/27 10:56:36;;;;;;;13.02;11.82;;;;;;;;;;5027319;28;20277;-73
2022/06/27 10:59:27;;;;;;;12.10;10.90;;;;;;;;;;5042048;28;20224;-73
2022/06/27 11:01:57;;;;;;;12.57;11.52;;;;;;;;;;4998593;28;20357;-76
2022/06/27 11:04:38;;;;;;;13.98;12.65;;;;;;;;;;5029926;28;20241;-71
2022/06/27 11:07:09;;;;;;;13.15;12.00;;;;;;;;;;5011418;28;20281;-72
2022/06/27 11:09:45;;;;;;;12.95;11.93;;;;;;;;;;4995598;28;20452;-73
2022/06/27 11:12:18;;;;;;;11.55;10.55;;;;;;;;;;5025867;28;20353;-72
2022/06/27 11:14:51;;;;;;;10.75;9.75;;;;;;;;;;4977931;28;20224;-71
2022/06/27 11:17:39;;;;;;;10.45;9.45;;;;;;;;;;5022590;28;20270;-70
2022/06/27 11:20:24;;;;;;;10.63;9.73;;;;;;;;;;5010635;28;20231;-71
2022/06/27 11:22:55;;;;;;;9.90;9.10;;;;;;;;;;5021674;28;20224;-70
2022/06/27 11:25:27;;;;;;;10.75;9.70;;;;;;;;;;5011633;28;20227;-71
2022/06/27 11:27:58;;;;;;;12.35;10.98;;;;;;;;;;5005930;28;20224;-70
2022/06/27 11:33:24;;;;;;;10.05;9.25;;;;;;;;;;5012842;28;20224;-71
2022/06/27 11:35:52;;;;;;;10.30;9.48;;;;;;;;;;5039775;28;20659;-69
2022/06/27 11:38:30;;;;;;;9.73;8.93;;;;;;;;;;5008118;28;20270;-71
2022/06/27 11:41:14;;;;;;;8.23;7.57;;;;;;;;;;4994708;28;20315;-72
2022/06/27 11:43:58;;;;;;;9.60;8.80;;;;;;;;;;5016037;28;20732;-70
2022/06/27 11:46:27;;;;;;;9.77;8.77;;;;;;;;;;5007924;28;20382;-72
2022/06/27 11:49:17;;;;;;;10.18;9.38;;;;;;;;;;5010764;28;20970;-71
2022/06/27 11:51:47;;;;;;;9.57;8.80;;;;;;;;;;5030588;28;21107;-72
2022/06/27 11:54:18;;;;;;;9.38;8.57;;;;;;;;;;5025327;28;20311;-70
2022/06/27 11:56:50;;;;;;;8.65;8.05;;;;;;;;;;5029038;28;20286;-72
2022/06/27 11:59:19;;;;;;;10.15;9.30;;;;;;;;;;5025325;28;20224;-71
2022/06/27 12:02:01;;;;;;;9.70;8.98;;;;;;;;;;5029493;28;21015;-73
2022/06/27 12:04:30;;;;;;;10.48;9.48;;;;;;;;;;5029112;28;20224;-72
2022/06/27 12:07:08;;;;;;;8.95;8.25;;;;;;;;;;5022121;28;20701;-71
2022/06/27 12:09:51;;;;;;;8.55;7.85;;;;;;;;;;5004457;28;20235;-71
2022/06/27 12:12:17;;;;;;;9.45;8.65;;;;;;;;;;5010543;28;20227;-71
2022/06/27 12:14:51;;;;;;;9.88;9.18;;;;;;;;;;4996642;28;20248;-73
2022/06/27 12:17:17;;;;;;;10.82;9.82;;;;;;;;;;5029648;28;20220;-72
2022/06/27 12:19:43;;;;;;;10.88;10.07;;;;;;;;;;5013141;28;20655;-72
2022/06/27 12:22:09;;;;;;;10.95;10.05;;;;;;;;;;5008417;28;20227;-70
2022/06/27 12:24:37;;;;;;;11.10;10.20;;;;;;;;;;5021427;28;20220;-70
2022/06/27 12:27:03;;;;;;;12.00;11.02;;;;;;;;;;5027920;28;20705;-70
2022/06/27 12:29:31;;;;;;;11.30;10.20;;;;;;;;;;4993774;28;20220;-71
2022/06/27 12:31:57;;;;;;;12.68;11.57;;;;;;;;;;5038475;28;20755;-70
2022/06/27 12:34:27;;;;;;;10.27;9.48;;;;;;;;;;5018603;28;20255;-72
2022/06/27 12:36:56;;;;;;;11.40;10.18;;;;;;;;;;5023098;28;20580;-72
2022/06/27 12:39:23;;;;;;;11.65;10.65;;;;;;;;;;5008197;28;20212;-71
2022/06/27 12:41:52;;;;;;;11.43;10.43;;;;;;;;;;5022297;28;20240;-71
2022/06/27 12:44:17;;;;;;;12.82;11.73;;;;;;;;;;5025090;28;20220;-70
2022/06/27 12:46:46;;;;;;;11.68;10.68;;;;;;;;;;5009024;28;20231;-71
2022/06/27 12:49:12;;;;;;;12.20;11.30;;;;;;;;;;5019308;28;20219;-71
2022/06/27 12:51:38;;;;;;;13.95;12.65;;;;;;;;;;5012454;28;20722;-70
2022/06/27 12:54:06;;;;;;;12.65;11.55;;;;;;;;;;5022332;28;20224;-72
2022/06/27 12:56:32;;;;;;;12.35;11.35;;;;;;;;;;5022934;28;20272;-72
2022/06/27 12:59:00;;;;;;;14.65;13.35;;;;;;;;;;5011569;28;20624;-72
2022/06/27 13:01:25;;;;;;;14.93;13.65;;;;;;;;;;5003776;28;20399;-71
2022/06/27 13:03:51;;;;;;;14.68;13.40;;;;;;;;;;5012262;28;20319;-72
2022/06/27 13:06:16;;;;;;;15.43;14.13;;;;;;;;;;5010620;28;20293;-72
2022/06/27 13:08:42;;;;;;;13.60;12.45;;;;;;;;;;5010172;28;20662;-73
2022/06/27 13:11:12;;;;;;;13.13;12.02;;;;;;;;;;5018495;28;20612;-71
2022/06/27 13:13:38;;;;;;;12.75;11.50;;;;;;;;;;5018310;28;20225;-73
2022/06/27 13:16:05;;;;;;;9.43;8.63;;;;;;;;;;5003350;28;20603;-72
2022/06/27 13:18:31;;;;;;;9.75;8.80;;;;;;;;;;5023747;28;20589;-73
2022/06/27 13:20:56;;;;;;;9.95;9.00;;;;;;;;;;5000014;28;20224;-71
2022/06/27 13:23:22;;;;;;;9.40;8.60;;;;;;;;;;4993962;28;20243;-77
2022/06/27 13:25:52;;;;;;;10.13;9.10;;;;;;;;;;5005337;28;20604;-74
2022/06/27 13:28:23;;;;;;;9.32;8.52;;;;;;;;;;5025979;28;20840;-74
2022/06/27 13:30:49;;;;;;;9.60;8.82;;;;;;;;;;5012054;28;20236;-76
2022/06/27 13:33:15;;;;;;;9.15;8.43;;;;;;;;;;5005598;28;20220;-75
2022/06/27 13:35:40;;;;;;;8.18;7.47;;;;;;;;;;5010991;28;20228;-73
2022/06/27 13:38:06;;;;;;;8.13;7.22;;;;;;;;;;5022987;28;20235;-74
2022/06/27 13:40:34;;;;;;;7.75;7.15;;;;;;;;;;5008850;28;20619;-75
2022/06/27 13:43:00;;;;;;;8.20;7.50;;;;;;;;;;5006833;28;20271;-74
2022/06/27 13:45:28;;;;;;;8.10;7.38;;;;;;;;;;4990109;28;20252;-76
2022/06/27 13:47:54;;;;;;;7.65;7.05;;;;;;;;;;5011095;28;20261;-77
2022/06/27 13:50:22;;;;;;;7.45;6.85;;;;;;;;;;5003366;28;20640;-77
2022/06/27 13:52:53;;;;;;;7.70;7.10;;;;;;;;;;5016456;28;20282;-76
2022/06/27 13:55:21;;;;;;;9.00;8.20;;;;;;;;;;5019382;28;20956;-78
2022/06/27 13:57:46;;;;;;;8.35;7.65;;;;;;;;;;5012196;28;20231;-77
2022/06/27 14:00:14;;;;;;;8.60;7.88;;;;;;;;;;5009552;28;20235;-78
2022/06/27 14:02:42;;;;;;;8.85;8.15;;;;;;;;;;5016984;28;20625;-77
2022/06/27 14:05:10;;;;;;;8.98;8.25;;;;;;;;;;5008759;28;20327;-76
2022/06/27 14:07:43;;;;;;;8.82;8.02;;;;;;;;;;5019404;28;20247;-77
2022/06/27 14:10:11;;;;;;;9.13;8.32;;;;;;;;;;5009385;28;20567;-75
2022/06/27 14:12:38;;;;;;;7.70;7.05;;;;;;;;;;5008803;28;20219;-77
2022/06/27 14:15:04;;;;;;;8.13;7.40;;;;;;;;;;5009877;28;20216;-76
2022/06/27 14:17:32;;;;;;;8.65;8.00;;;;;;;;;;5006210;28;20229;-79
2022/06/27 14:19:58;;;;;;;8.48;7.88;;;;;;;;;;4999644;28;20224;-75
2022/06/27 14:22:23;;;;;;;8.43;7.72;;;;;;;;;;5011755;28;20224;-77
2022/06/27 14:24:49;;;;;;;9.82;8.43;;;;;;;;;;5027541;28;20224;-77
2022/06/27 14:27:18;;;;;;;9.50;8.70;;;;;;;;;;5011086;28;20235;-76
2022/06/27 14:29:45;;;;;;;7.78;7.18;;;;;;;;;;5021941;28;20223;-77
2022/06/27 14:32:10;;;;;;;9.95;9.13;;;;;;;;;;5035703;28;20229;-77
2022/06/27 14:34:36;;;;;;;9.27;8.45;;;;;;;;;;5007691;28;20295;-75
2022/06/27 14:37:05;;;;;;;10.95;9.95;;;;;;;;;;5027944;28;20244;-77
2022/06/27 14:39:33;;;;;;;10.27;9.48;;;;;;;;;;4999866;28;20278;-80
2022/06/27 14:41:59;;;;;;;11.63;10.63;;;;;;;;;;5013898;28;20275;-75
2022/06/27 14:44:24;;;;;;;11.52;10.63;;;;;;;;;;5006468;28;20228;-78
2022/06/27 14:46:51;;;;;;;12.68;11.73;;;;;;;;;;5032237;28;20215;-78
2022/06/27 14:49:17;;;;;;;11.23;10.32;;;;;;;;;;5012624;28;20292;-77
2022/06/27 14:51:45;;;;;;;10.60;9.80;;;;;;;;;;5010895;28;20303;-76
2022/06/27 14:54:13;;;;;;;10.25;9.45;;;;;;;;;;5010013;28;20221;-76
2022/06/27 14:56:41;;;;;;;9.95;9.15;;;;;;;;;;5001343;28;20271;-78
2022/06/27 14:59:10;;;;;;;10.63;9.77;;;;;;;;;;5006725;28;20726;-77